sensor_id;sensor_type;location;lat;lon;timestamp;temperature;humidity
31725;DHT22;18306;40.960;14.836;2022-11-20T00:02:18;17.00;99.90
31725;DHT22;18306;40.960;14.836;2022-11-20T00:04:51;17.00;99.90
31725;DHT22;18306;40.960;14.836;2022-11-20T00:07:23;17.10;99.90
31725;DHT22;18306;40.960;14.836;2022-11-20T00:09:53;17.20;99.90
31725;DHT22;18306;40.960;14.836;2022-11-20T00:12:24;17.10;99.90
31725;DHT22;18306;40.960;14.836;2022-11-20T00:14:55;17.00;99.90
31725;DHT22;18306;40.960;14.836;2022-11-20T00:17:25;16.90;99.90
31725;DHT22;18306;40.960;14.836;2022-11-20T00:19:55;16.90;99.90
31725;DHT22;18306;40.960;14.836;2022-11-20T00:22:26;16.80;99.90
31725;DHT22;18306;40.960;14.836;2022-11-20T00:24:57;16.70;99.90
31725;DHT22;18306;40.960;14.836;2022-11-20T00:27:26;16.70;99.90
31725;DHT22;18306;40.960;14.836;2022-11-20T00:29:56;16.50;99.90
31725;DHT22;18306;40.960;14.836;2022-11-20T00:32:28;16.70;99.90
31725;DHT22;18306;40.960;14.836;2022-11-20T00:34:59;16.80;99.90
31725;DHT22;18306;40.960;14.836;2022-11-20T00:37:30;16.80;99.90
31725;DHT22;18306;40.960;14.836;2022-11-20T00:40:00;16.80;99.90
31725;DHT22;18306;40.960;14.836;2022-11-20T00:42:32;16.80;99.90
31725;DHT22;18306;40.960;14.836;2022-11-20T00:45:02;16.70;99.90
31725;DHT22;18306;40.960;14.836;2022-11-20T00:47:32;16.70;99.90
31725;DHT22;18306;40.960;14.836;2022-11-20T00:50:05;16.70;99.90
31725;DHT22;18306;40.960;14.836;2022-11-20T00:52:37;16.60;99.90
31725;DHT22;18306;40.960;14.836;2022-11-20T00:55:08;16.50;99.90
31725;DHT22;18306;40.960;14.836;2022-11-20T00:57:37;16.50;99.90
31725;DHT22;18306;40.960;14.836;2022-11-20T01:00:10;16.60;99.90
31725;DHT22;18306;40.960;14.836;2022-11-20T01:02:42;16.50;99.90
31725;DHT22;18306;40.960;14.836;2022-11-20T01:05:14;16.60;99.90
31725;DHT22;18306;40.960;14.836;2022-11-20T01:07:46;16.60;99.90
31725;DHT22;18306;40.960;14.836;2022-11-20T01:10:15;16.70;99.90
31725;DHT22;18306;40.960;14.836;2022-11-20T01:12:47;16.70;99.90
31725;DHT22;18306;40.960;14.836;2022-11-20T01:15:37;16.70;99.90
31725;DHT22;18306;40.960;14.836;2022-11-20T01:18:08;16.70;99.90
31725;DHT22;18306;40.960;14.836;2022-11-20T01:20:38;16.70;99.90
31725;DHT22;18306;40.960;14.836;2022-11-20T01:23:08;16.70;99.90
31725;DHT22;18306;40.960;14.836;2022-11-20T01:25:37;16.80;99.90
31725;DHT22;18306;40.960;14.836;2022-11-20T01:28:07;16.90;99.90
31725;DHT22;18306;40.960;14.836;2022-11-20T01:30:37;17.00;99.90
31725;DHT22;18306;40.960;14.836;2022-11-20T01:33:06;17.00;99.90
31725;DHT22;18306;40.960;14.836;2022-11-20T01:35:37;17.00;99.90
31725;DHT22;18306;40.960;14.836;2022-11-20T01:38:27;17.20;99.90
31725;DHT22;18306;40.960;14.836;2022-11-20T01:41:07;17.30;99.90
31725;DHT22;18306;40.960;14.836;2022-11-20T01:43:37;17.30;99.90
31725;DHT22;18306;40.960;14.836;2022-11-20T01:46:18;17.30;99.90
31725;DHT22;18306;40.960;14.836;2022-11-20T01:51:39;17.10;99.90
31725;DHT22;18306;40.960;14.836;2022-11-20T01:54:20;17.00;99.90
31725;DHT22;18306;40.960;14.836;2022-11-20T01:56:54;16.90;99.90
31725;DHT22;18306;40.960;14.836;2022-11-20T01:59:27;16.80;99.90
31725;DHT22;18306;40.960;14.836;2022-11-20T02:01:59;16.80;99.90
31725;DHT22;18306;40.960;14.836;2022-11-20T02:04:29;16.80;99.90
31725;DHT22;18306;40.960;14.836;2022-11-20T02:07:02;16.70;99.90
31725;DHT22;18306;40.960;14.836;2022-11-20T02:09:38;16.70;99.90
31725;DHT22;18306;40.960;14.836;2022-11-20T02:12:07;16.60;99.90
31725;DHT22;18306;40.960;14.836;2022-11-20T02:14:58;16.60;99.90
31725;DHT22;18306;40.960;14.836;2022-11-20T02:17:27;16.40;99.90
31725;DHT22;18306;40.960;14.836;2022-11-20T02:19:57;16.30;99.90
31725;DHT22;18306;40.960;14.836;2022-11-20T02:22:35;16.10;99.90
31725;DHT22;18306;40.960;14.836;2022-11-20T02:25:09;15.90;99.90
31725;DHT22;18306;40.960;14.836;2022-11-20T02:27:39;15.90;99.90
31725;DHT22;18306;40.960;14.836;2022-11-20T02:30:09;15.80;99.90
31725;DHT22;18306;40.960;14.836;2022-11-20T02:32:40;15.80;99.90
31725;DHT22;18306;40.960;14.836;2022-11-20T02:38:12;15.80;99.90
31725;DHT22;18306;40.960;14.836;2022-11-20T02:40:52;15.80;99.90
31725;DHT22;18306;40.960;14.836;2022-11-20T02:43:23;15.90;99.90
31725;DHT22;18306;40.960;14.836;2022-11-20T02:46:07;15.90;99.90
31725;DHT22;18306;40.960;14.836;2022-11-20T02:48:47;15.80;99.90
31725;DHT22;18306;40.960;14.836;2022-11-20T02:51:24;15.70;99.90
31725;DHT22;18306;40.960;14.836;2022-11-20T02:54:00;15.80;99.90
31725;DHT22;18306;40.960;14.836;2022-11-20T02:56:29;15.80;99.90
31725;DHT22;18306;40.960;14.836;2022-11-20T02:58:58;15.80;99.90
31725;DHT22;18306;40.960;14.836;2022-11-20T03:01:30;15.80;99.90
31725;DHT22;18306;40.960;14.836;2022-11-20T03:04:01;15.70;99.90
31725;DHT22;18306;40.960;14.836;2022-11-20T03:06:31;15.60;99.90
31725;DHT22;18306;40.960;14.836;2022-11-20T03:09:01;15.70;99.90
31725;DHT22;18306;40.960;14.836;2022-11-20T03:11:31;15.70;99.90
31725;DHT22;18306;40.960;14.836;2022-11-20T03:14:05;15.80;99.90
31725;DHT22;18306;40.960;14.836;2022-11-20T03:16:34;15.80;99.90
31725;DHT22;18306;40.960;14.836;2022-11-20T03:19:04;15.80;99.90
31725;DHT22;18306;40.960;14.836;2022-11-20T03:21:34;15.90;99.90
31725;DHT22;18306;40.960;14.836;2022-11-20T03:24:03;16.00;99.90
31725;DHT22;18306;40.960;14.836;2022-11-20T03:26:32;15.80;99.90
31725;DHT22;18306;40.960;14.836;2022-11-20T03:29:03;15.90;99.90
31725;DHT22;18306;40.960;14.836;2022-11-20T03:31:37;15.90;99.90
31725;DHT22;18306;40.960;14.836;2022-11-20T03:34:10;15.90;99.90
31725;DHT22;18306;40.960;14.836;2022-11-20T03:36:42;16.00;99.90
31725;DHT22;18306;40.960;14.836;2022-11-20T03:39:12;15.90;99.90
31725;DHT22;18306;40.960;14.836;2022-11-20T03:41:42;15.90;99.90
31725;DHT22;18306;40.960;14.836;2022-11-20T03:44:13;15.80;99.90
31725;DHT22;18306;40.960;14.836;2022-11-20T03:46:41;15.70;99.90
31725;DHT22;18306;40.960;14.836;2022-11-20T03:49:13;15.60;99.90
31725;DHT22;18306;40.960;14.836;2022-11-20T03:51:44;15.50;99.90
31725;DHT22;18306;40.960;14.836;2022-11-20T03:54:15;15.30;99.90
31725;DHT22;18306;40.960;14.836;2022-11-20T03:56:46;15.30;99.90
31725;DHT22;18306;40.960;14.836;2022-11-20T03:59:17;15.40;99.90
31725;DHT22;18306;40.960;14.836;2022-11-20T04:01:47;15.30;99.90
31725;DHT22;18306;40.960;14.836;2022-11-20T04:04:17;15.20;99.90
31725;DHT22;18306;40.960;14.836;2022-11-20T04:06:48;15.10;99.90
31725;DHT22;18306;40.960;14.836;2022-11-20T04:09:16;14.90;99.90
31725;DHT22;18306;40.960;14.836;2022-11-20T04:11:46;14.90;99.90
31725;DHT22;18306;40.960;14.836;2022-11-20T04:14:15;14.90;99.90
31725;DHT22;18306;40.960;14.836;2022-11-20T04:16:47;14.90;99.90
31725;DHT22;18306;40.960;14.836;2022-11-20T04:19:16;14.90;99.90
31725;DHT22;18306;40.960;14.836;2022-11-20T04:21:46;14.90;99.90
31725;DHT22;18306;40.960;14.836;2022-11-20T04:24:17;14.80;99.90
31725;DHT22;18306;40.960;14.836;2022-11-20T04:26:49;14.90;99.90
31725;DHT22;18306;40.960;14.836;2022-11-20T04:29:18;14.90;99.90
31725;DHT22;18306;40.960;14.836;2022-11-20T04:31:48;14.90;99.90
31725;DHT22;18306;40.960;14.836;2022-11-20T04:34:17;15.00;99.90
31725;DHT22;18306;40.960;14.836;2022-11-20T04:36:46;15.00;99.90
31725;DHT22;18306;40.960;14.836;2022-11-20T04:39:16;15.10;99.90
31725;DHT22;18306;40.960;14.836;2022-11-20T04:41:45;15.20;99.90
31725;DHT22;18306;40.960;14.836;2022-11-20T04:44:17;15.20;99.90
31725;DHT22;18306;40.960;14.836;2022-11-20T04:46:49;15.10;99.90
31725;DHT22;18306;40.960;14.836;2022-11-20T04:49:20;14.90;99.90
31725;DHT22;18306;40.960;14.836;2022-11-20T04:51:53;14.60;99.90
31725;DHT22;18306;40.960;14.836;2022-11-20T04:54:23;14.60;99.90
31725;DHT22;18306;40.960;14.836;2022-11-20T04:56:55;14.70;99.90
31725;DHT22;18306;40.960;14.836;2022-11-20T04:59:25;14.80;99.90
31725;DHT22;18306;40.960;14.836;2022-11-20T05:01:55;14.80;99.90
31725;DHT22;18306;40.960;14.836;2022-11-20T05:04:26;14.90;99.90
31725;DHT22;18306;40.960;14.836;2022-11-20T05:06:57;14.80;99.90
31725;DHT22;18306;40.960;14.836;2022-11-20T05:09:29;14.90;99.90
31725;DHT22;18306;40.960;14.836;2022-11-20T05:11:59;15.00;99.90
31725;DHT22;18306;40.960;14.836;2022-11-20T05:14:28;15.00;99.90
31725;DHT22;18306;40.960;14.836;2022-11-20T05:16:58;14.80;99.90
31725;DHT22;18306;40.960;14.836;2022-11-20T05:19:28;14.70;99.90
31725;DHT22;18306;40.960;14.836;2022-11-20T05:21:56;14.80;99.90
31725;DHT22;18306;40.960;14.836;2022-11-20T05:24:27;14.80;99.90
31725;DHT22;18306;40.960;14.836;2022-11-20T05:26:58;14.80;99.90
31725;DHT22;18306;40.960;14.836;2022-11-20T05:29:26;14.90;99.90
31725;DHT22;18306;40.960;14.836;2022-11-20T05:31:58;14.90;99.90
31725;DHT22;18306;40.960;14.836;2022-11-20T05:34:29;15.00;99.90
31725;DHT22;18306;40.960;14.836;2022-11-20T05:37:02;14.80;99.90
31725;DHT22;18306;40.960;14.836;2022-11-20T05:39:36;14.80;99.90
31725;DHT22;18306;40.960;14.836;2022-11-20T05:42:08;15.00;99.90
31725;DHT22;18306;40.960;14.836;2022-11-20T05:45:01;15.00;99.90
31725;DHT22;18306;40.960;14.836;2022-11-20T05:47:33;14.90;99.90
31725;DHT22;18306;40.960;14.836;2022-11-20T05:50:04;14.90;99.90
31725;DHT22;18306;40.960;14.836;2022-11-20T05:52:39;14.90;99.90
31725;DHT22;18306;40.960;14.836;2022-11-20T05:55:08;15.00;99.90
31725;DHT22;18306;40.960;14.836;2022-11-20T05:57:38;15.00;99.90
31725;DHT22;18306;40.960;14.836;2022-11-20T06:00:08;15.00;99.90
31725;DHT22;18306;40.960;14.836;2022-11-20T06:02:43;15.10;99.90
31725;DHT22;18306;40.960;14.836;2022-11-20T06:05:13;14.80;99.90
31725;DHT22;18306;40.960;14.836;2022-11-20T06:07:44;14.60;99.90
31725;DHT22;18306;40.960;14.836;2022-11-20T06:10:16;14.70;99.90
31725;DHT22;18306;40.960;14.836;2022-11-20T06:12:46;14.80;99.90
31725;DHT22;18306;40.960;14.836;2022-11-20T06:15:16;14.90;99.90
31725;DHT22;18306;40.960;14.836;2022-11-20T06:17:45;14.90;99.90
31725;DHT22;18306;40.960;14.836;2022-11-20T06:20:14;14.80;99.90
31725;DHT22;18306;40.960;14.836;2022-11-20T06:22:46;14.80;99.90
31725;DHT22;18306;40.960;14.836;2022-11-20T06:25:16;14.80;99.90
31725;DHT22;18306;40.960;14.836;2022-11-20T06:27:47;14.90;99.90
31725;DHT22;18306;40.960;14.836;2022-11-20T06:30:18;15.00;99.90
31725;DHT22;18306;40.960;14.836;2022-11-20T06:32:49;15.00;99.90
31725;DHT22;18306;40.960;14.836;2022-11-20T06:35:18;15.00;99.90
31725;DHT22;18306;40.960;14.836;2022-11-20T06:37:50;15.10;99.90
31725;DHT22;18306;40.960;14.836;2022-11-20T06:40:22;14.90;99.90
31725;DHT22;18306;40.960;14.836;2022-11-20T06:42:53;14.70;99.90
31725;DHT22;18306;40.960;14.836;2022-11-20T06:45:25;14.50;99.90
31725;DHT22;18306;40.960;14.836;2022-11-20T06:48:00;14.60;99.90
31725;DHT22;18306;40.960;14.836;2022-11-20T06:50:31;14.90;99.90
31725;DHT22;18306;40.960;14.836;2022-11-20T06:53:04;15.10;99.90
31725;DHT22;18306;40.960;14.836;2022-11-20T06:55:43;15.30;99.90
31725;DHT22;18306;40.960;14.836;2022-11-20T06:58:15;15.40;99.90
31725;DHT22;18306;40.960;14.836;2022-11-20T07:00:45;15.50;99.90
31725;DHT22;18306;40.960;14.836;2022-11-20T07:03:15;15.50;99.90
31725;DHT22;18306;40.960;14.836;2022-11-20T07:05:46;15.50;99.90
31725;DHT22;18306;40.960;14.836;2022-11-20T07:08:19;15.30;99.90
31725;DHT22;18306;40.960;14.836;2022-11-20T07:10:56;15.40;99.90
31725;DHT22;18306;40.960;14.836;2022-11-20T07:13:28;15.60;99.90
31725;DHT22;18306;40.960;14.836;2022-11-20T07:16:02;15.50;99.90
31725;DHT22;18306;40.960;14.836;2022-11-20T07:18:33;15.30;99.90
31725;DHT22;18306;40.960;14.836;2022-11-20T07:21:07;15.20;99.90
31725;DHT22;18306;40.960;14.836;2022-11-20T07:23:39;15.40;99.90
31725;DHT22;18306;40.960;14.836;2022-11-20T07:26:11;15.70;99.90
31725;DHT22;18306;40.960;14.836;2022-11-20T07:28:50;15.80;99.90
31725;DHT22;18306;40.960;14.836;2022-11-20T07:31:24;15.90;99.90
31725;DHT22;18306;40.960;14.836;2022-11-20T07:33:55;16.00;99.90
31725;DHT22;18306;40.960;14.836;2022-11-20T07:36:27;16.10;99.90
31725;DHT22;18306;40.960;14.836;2022-11-20T07:38:57;16.40;99.90
31725;DHT22;18306;40.960;14.836;2022-11-20T07:41:27;16.50;99.90
31725;DHT22;18306;40.960;14.836;2022-11-20T07:43:58;16.30;99.90
31725;DHT22;18306;40.960;14.836;2022-11-20T07:46:30;16.30;99.90
31725;DHT22;18306;40.960;14.836;2022-11-20T07:49:04;16.30;99.90
31725;DHT22;18306;40.960;14.836;2022-11-20T07:51:37;16.50;99.90
31725;DHT22;18306;40.960;14.836;2022-11-20T07:54:12;16.70;99.90
31725;DHT22;18306;40.960;14.836;2022-11-20T07:56:44;16.90;99.90
31725;DHT22;18306;40.960;14.836;2022-11-20T07:59:15;17.00;99.90
31725;DHT22;18306;40.960;14.836;2022-11-20T08:01:43;17.10;99.90
31725;DHT22;18306;40.960;14.836;2022-11-20T08:04:13;17.20;99.90
31725;DHT22;18306;40.960;14.836;2022-11-20T08:06:46;17.30;99.90
31725;DHT22;18306;40.960;14.836;2022-11-20T08:09:19;17.30;99.90
31725;DHT22;18306;40.960;14.836;2022-11-20T08:11:50;17.30;99.90
31725;DHT22;18306;40.960;14.836;2022-11-20T08:14:45;17.40;99.90
31725;DHT22;18306;40.960;14.836;2022-11-20T08:17:18;17.40;99.90
31725;DHT22;18306;40.960;14.836;2022-11-20T08:19:51;17.30;99.90
31725;DHT22;18306;40.960;14.836;2022-11-20T08:22:21;17.20;99.90
31725;DHT22;18306;40.960;14.836;2022-11-20T08:24:51;16.90;99.90
31725;DHT22;18306;40.960;14.836;2022-11-20T08:27:22;16.90;99.90
31725;DHT22;18306;40.960;14.836;2022-11-20T08:29:53;16.80;99.90
31725;DHT22;18306;40.960;14.836;2022-11-20T08:32:23;16.80;99.90
31725;DHT22;18306;40.960;14.836;2022-11-20T08:34:54;16.90;99.90
31725;DHT22;18306;40.960;14.836;2022-11-20T08:37:57;16.70;99.90
31725;DHT22;18306;40.960;14.836;2022-11-20T08:40:28;16.70;99.90
31725;DHT22;18306;40.960;14.836;2022-11-20T08:43:00;16.80;99.90
31725;DHT22;18306;40.960;14.836;2022-11-20T08:45:32;16.90;99.90
31725;DHT22;18306;40.960;14.836;2022-11-20T08:48:04;17.00;99.90
31725;DHT22;18306;40.960;14.836;2022-11-20T08:50:35;16.90;99.90
31725;DHT22;18306;40.960;14.836;2022-11-20T08:53:07;16.80;99.90
31725;DHT22;18306;40.960;14.836;2022-11-20T08:55:40;16.70;99.90
31725;DHT22;18306;40.960;14.836;2022-11-20T08:58:14;16.50;99.90
31725;DHT22;18306;40.960;14.836;2022-11-20T09:00:49;16.40;99.90
31725;DHT22;18306;40.960;14.836;2022-11-20T09:03:20;16.40;99.90
31725;DHT22;18306;40.960;14.836;2022-11-20T09:06:02;16.50;99.90
31725;DHT22;18306;40.960;14.836;2022-11-20T09:08:39;16.50;99.90
31725;DHT22;18306;40.960;14.836;2022-11-20T09:11:11;16.40;99.90
31725;DHT22;18306;40.960;14.836;2022-11-20T09:13:44;16.40;99.90
31725;DHT22;18306;40.960;14.836;2022-11-20T09:16:18;16.50;99.90
31725;DHT22;18306;40.960;14.836;2022-11-20T09:18:51;16.60;99.90
31725;DHT22;18306;40.960;14.836;2022-11-20T09:21:21;16.60;99.90
31725;DHT22;18306;40.960;14.836;2022-11-20T09:23:51;16.60;99.90
31725;DHT22;18306;40.960;14.836;2022-11-20T09:26:22;16.60;99.90
31725;DHT22;18306;40.960;14.836;2022-11-20T09:28:54;16.50;99.90
31725;DHT22;18306;40.960;14.836;2022-11-20T09:31:27;16.40;99.90
31725;DHT22;18306;40.960;14.836;2022-11-20T09:34:00;16.40;99.90
31725;DHT22;18306;40.960;14.836;2022-11-20T09:36:30;16.40;99.90
31725;DHT22;18306;40.960;14.836;2022-11-20T09:39:10;16.50;99.90
31725;DHT22;18306;40.960;14.836;2022-11-20T09:41:54;16.50;99.90
31725;DHT22;18306;40.960;14.836;2022-11-20T09:47:10;16.30;99.90
31725;DHT22;18306;40.960;14.836;2022-11-20T09:50:17;16.10;99.90
31725;DHT22;18306;40.960;14.836;2022-11-20T09:53:30;16.20;99.90
31725;DHT22;18306;40.960;14.836;2022-11-20T09:56:03;16.30;99.90
31725;DHT22;18306;40.960;14.836;2022-11-20T09:58:54;16.30;99.90
31725;DHT22;18306;40.960;14.836;2022-11-20T10:01:35;16.40;99.90
31725;DHT22;18306;40.960;14.836;2022-11-20T10:04:27;16.40;99.90
31725;DHT22;18306;40.960;14.836;2022-11-20T10:07:16;16.50;99.90
31725;DHT22;18306;40.960;14.836;2022-11-20T10:09:56;16.60;99.90
31725;DHT22;18306;40.960;14.836;2022-11-20T10:24:16;17.10;99.90
31725;DHT22;18306;40.960;14.836;2022-11-20T10:30:09;17.10;99.90
31725;DHT22;18306;40.960;14.836;2022-11-20T10:32:41;17.20;99.90
31725;DHT22;18306;40.960;14.836;2022-11-20T10:35:23;17.10;99.90
31725;DHT22;18306;40.960;14.836;2022-11-20T10:38:01;17.10;99.90
31725;DHT22;18306;40.960;14.836;2022-11-20T10:40:48;17.10;99.90
31725;DHT22;18306;40.960;14.836;2022-11-20T10:43:33;17.00;99.90
31725;DHT22;18306;40.960;14.836;2022-11-20T10:46:11;17.00;99.90
31725;DHT22;18306;40.960;14.836;2022-11-20T10:48:44;17.10;99.90
31725;DHT22;18306;40.960;14.836;2022-11-20T10:56:56;17.30;99.90
31725;DHT22;18306;40.960;14.836;2022-11-20T11:02:22;17.30;99.90
31725;DHT22;18306;40.960;14.836;2022-11-20T11:04:57;17.30;99.90
31725;DHT22;18306;40.960;14.836;2022-11-20T11:07:39;17.30;99.90
31725;DHT22;18306;40.960;14.836;2022-11-20T11:11:02;17.40;99.90
31725;DHT22;18306;40.960;14.836;2022-11-20T11:13:31;17.30;99.90
31725;DHT22;18306;40.960;14.836;2022-11-20T11:16:03;17.30;99.90
31725;DHT22;18306;40.960;14.836;2022-11-20T11:18:47;17.40;99.90
31725;DHT22;18306;40.960;14.836;2022-11-20T11:21:25;17.30;99.90
31725;DHT22;18306;40.960;14.836;2022-11-20T11:24:03;17.10;99.90
31725;DHT22;18306;40.960;14.836;2022-11-20T11:26:34;17.40;99.90
31725;DHT22;18306;40.960;14.836;2022-11-20T11:29:05;17.60;99.90
31725;DHT22;18306;40.960;14.836;2022-11-20T11:31:35;17.50;99.90
31725;DHT22;18306;40.960;14.836;2022-11-20T11:34:15;17.50;99.90
31725;DHT22;18306;40.960;14.836;2022-11-20T11:36:57;17.40;99.90
31725;DHT22;18306;40.960;14.836;2022-11-20T11:39:29;17.30;99.90
31725;DHT22;18306;40.960;14.836;2022-11-20T11:42:02;17.20;99.90
31725;DHT22;18306;40.960;14.836;2022-11-20T11:44:35;17.10;99.90
31725;DHT22;18306;40.960;14.836;2022-11-20T11:47:30;17.00;99.90
31725;DHT22;18306;40.960;14.836;2022-11-20T11:52:43;17.10;99.90
31725;DHT22;18306;40.960;14.836;2022-11-20T12:04:46;16.90;99.90
31725;DHT22;18306;40.960;14.836;2022-11-20T12:10:03;17.00;99.90
31725;DHT22;18306;40.960;14.836;2022-11-20T12:12:38;17.10;99.90
31725;DHT22;18306;40.960;14.836;2022-11-20T12:15:22;17.00;99.90
31725;DHT22;18306;40.960;14.836;2022-11-20T12:17:55;16.90;99.90
31725;DHT22;18306;40.960;14.836;2022-11-20T12:20:39;16.90;99.90
31725;DHT22;18306;40.960;14.836;2022-11-20T12:23:23;17.10;99.90
31725;DHT22;18306;40.960;14.836;2022-11-20T12:26:05;17.30;99.90
31725;DHT22;18306;40.960;14.836;2022-11-20T12:32:33;17.20;99.90
31725;DHT22;18306;40.960;14.836;2022-11-20T12:38:23;17.30;99.90
31725;DHT22;18306;40.960;14.836;2022-11-20T12:41:21;17.40;99.90
31725;DHT22;18306;40.960;14.836;2022-11-20T12:47:41;17.30;99.90
31725;DHT22;18306;40.960;14.836;2022-11-20T12:59:00;17.20;99.90
31725;DHT22;18306;40.960;14.836;2022-11-20T13:01:49;17.20;99.90
31725;DHT22;18306;40.960;14.836;2022-11-20T13:04:54;17.30;99.90
31725;DHT22;18306;40.960;14.836;2022-11-20T13:07:38;17.00;99.90
31725;DHT22;18306;40.960;14.836;2022-11-20T13:10:49;16.90;99.90
31725;DHT22;18306;40.960;14.836;2022-11-20T13:18:42;17.10;99.90
31725;DHT22;18306;40.960;14.836;2022-11-20T13:21:34;16.70;99.90
31725;DHT22;18306;40.960;14.836;2022-11-20T13:24:27;16.80;99.90
31725;DHT22;18306;40.960;14.836;2022-11-20T13:27:19;16.80;99.90
31725;DHT22;18306;40.960;14.836;2022-11-20T13:30:15;16.70;99.90
31725;DHT22;18306;40.960;14.836;2022-11-20T13:32:56;16.90;99.90
31725;DHT22;18306;40.960;14.836;2022-11-20T13:35:42;16.90;99.90
31725;DHT22;18306;40.960;14.836;2022-11-20T13:38:17;16.80;99.90
31725;DHT22;18306;40.960;14.836;2022-11-20T13:41:01;16.70;99.90
31725;DHT22;18306;40.960;14.836;2022-11-20T13:43:52;16.70;99.90
31725;DHT22;18306;40.960;14.836;2022-11-20T13:46:35;16.60;99.90
31725;DHT22;18306;40.960;14.836;2022-11-20T13:50:43;16.40;99.90
31725;DHT22;18306;40.960;14.836;2022-11-20T13:53:35;16.50;99.90
31725;DHT22;18306;40.960;14.836;2022-11-20T13:56:34;16.40;99.90
31725;DHT22;18306;40.960;14.836;2022-11-20T14:02:21;16.20;99.90
31725;DHT22;18306;40.960;14.836;2022-11-20T14:04:56;16.30;99.90
31725;DHT22;18306;40.960;14.836;2022-11-20T14:07:40;16.10;99.90
31725;DHT22;18306;40.960;14.836;2022-11-20T14:10:26;16.20;99.90
31725;DHT22;18306;40.960;14.836;2022-11-20T14:12:58;16.10;99.90
31725;DHT22;18306;40.960;14.836;2022-11-20T14:15:33;16.00;99.90
31725;DHT22;18306;40.960;14.836;2022-11-20T14:18:31;16.10;99.90
31725;DHT22;18306;40.960;14.836;2022-11-20T14:21:04;16.10;99.90
31725;DHT22;18306;40.960;14.836;2022-11-20T14:23:34;16.20;99.90
31725;DHT22;18306;40.960;14.836;2022-11-20T14:26:04;16.30;99.90
31725;DHT22;18306;40.960;14.836;2022-11-20T14:28:34;16.40;99.90
31725;DHT22;18306;40.960;14.836;2022-11-20T14:31:18;16.10;99.90
31725;DHT22;18306;40.960;14.836;2022-11-20T14:33:54;16.20;99.90
31725;DHT22;18306;40.960;14.836;2022-11-20T14:36:25;16.30;99.90
31725;DHT22;18306;40.960;14.836;2022-11-20T14:38:55;16.30;99.90
31725;DHT22;18306;40.960;14.836;2022-11-20T14:41:26;16.30;99.90
31725;DHT22;18306;40.960;14.836;2022-11-20T14:43:59;16.20;99.90
31725;DHT22;18306;40.960;14.836;2022-11-20T14:46:38;16.30;99.90
31725;DHT22;18306;40.960;14.836;2022-11-20T14:49:10;16.30;99.90
31725;DHT22;18306;40.960;14.836;2022-11-20T14:51:41;16.40;99.90
31725;DHT22;18306;40.960;14.836;2022-11-20T14:54:20;16.50;99.90
31725;DHT22;18306;40.960;14.836;2022-11-20T14:57:02;16.40;99.90
31725;DHT22;18306;40.960;14.836;2022-11-20T14:59:40;16.50;99.90
31725;DHT22;18306;40.960;14.836;2022-11-20T15:02:16;16.50;99.90
31725;DHT22;18306;40.960;14.836;2022-11-20T15:04:58;16.40;99.90
31725;DHT22;18306;40.960;14.836;2022-11-20T15:07:33;16.30;99.90
31725;DHT22;18306;40.960;14.836;2022-11-20T15:10:24;16.40;99.90
31725;DHT22;18306;40.960;14.836;2022-11-20T15:13:24;16.60;99.90
31725;DHT22;18306;40.960;14.836;2022-11-20T15:16:03;16.70;99.90
31725;DHT22;18306;40.960;14.836;2022-11-20T15:18:41;16.60;99.90
31725;DHT22;18306;40.960;14.836;2022-11-20T15:21:18;16.60;99.90
31725;DHT22;18306;40.960;14.836;2022-11-20T15:23:50;16.70;99.90
31725;DHT22;18306;40.960;14.836;2022-11-20T15:26:28;16.50;99.90
31725;DHT22;18306;40.960;14.836;2022-11-20T15:29:02;16.70;99.90
31725;DHT22;18306;40.960;14.836;2022-11-20T15:31:35;16.60;99.90
31725;DHT22;18306;40.960;14.836;2022-11-20T15:34:08;16.20;99.90
31725;DHT22;18306;40.960;14.836;2022-11-20T15:36:40;16.10;99.90
31725;DHT22;18306;40.960;14.836;2022-11-20T15:39:11;16.10;99.90
31725;DHT22;18306;40.960;14.836;2022-11-20T15:41:45;16.10;99.90
31725;DHT22;18306;40.960;14.836;2022-11-20T15:44:27;16.20;99.90
31725;DHT22;18306;40.960;14.836;2022-11-20T15:47:02;16.10;99.90
31725;DHT22;18306;40.960;14.836;2022-11-20T15:49:36;16.10;99.90
31725;DHT22;18306;40.960;14.836;2022-11-20T15:52:10;16.00;99.90
31725;DHT22;18306;40.960;14.836;2022-11-20T15:54:43;16.10;99.90
31725;DHT22;18306;40.960;14.836;2022-11-20T15:57:13;16.00;99.90
31725;DHT22;18306;40.960;14.836;2022-11-20T15:59:43;16.00;99.90
31725;DHT22;18306;40.960;14.836;2022-11-20T16:02:13;16.00;99.90
31725;DHT22;18306;40.960;14.836;2022-11-20T16:04:44;16.10;99.90
31725;DHT22;18306;40.960;14.836;2022-11-20T16:07:14;16.20;99.90
31725;DHT22;18306;40.960;14.836;2022-11-20T16:09:48;16.20;99.90
31725;DHT22;18306;40.960;14.836;2022-11-20T16:12:18;16.20;99.90
31725;DHT22;18306;40.960;14.836;2022-11-20T16:15:05;16.30;99.90
31725;DHT22;18306;40.960;14.836;2022-11-20T16:17:56;16.30;99.90
31725;DHT22;18306;40.960;14.836;2022-11-20T16:20:25;16.30;99.90
31725;DHT22;18306;40.960;14.836;2022-11-20T16:23:02;16.30;99.90
31725;DHT22;18306;40.960;14.836;2022-11-20T16:25:34;16.40;99.90
31725;DHT22;18306;40.960;14.836;2022-11-20T16:28:03;16.50;99.90
31725;DHT22;18306;40.960;14.836;2022-11-20T16:30:43;16.50;99.90
31725;DHT22;18306;40.960;14.836;2022-11-20T16:33:17;16.40;99.90
31725;DHT22;18306;40.960;14.836;2022-11-20T16:35:46;16.30;99.90
31725;DHT22;18306;40.960;14.836;2022-11-20T16:42:04;16.30;99.90
31725;DHT22;18306;40.960;14.836;2022-11-20T16:44:33;15.90;99.90
31725;DHT22;18306;40.960;14.836;2022-11-20T16:47:03;15.90;99.90
31725;DHT22;18306;40.960;14.836;2022-11-20T16:49:33;15.90;99.90
31725;DHT22;18306;40.960;14.836;2022-11-20T16:52:03;16.00;99.90
31725;DHT22;18306;40.960;14.836;2022-11-20T16:54:32;16.00;99.90
31725;DHT22;18306;40.960;14.836;2022-11-20T16:57:01;16.10;99.90
31725;DHT22;18306;40.960;14.836;2022-11-20T16:59:33;16.20;99.90
31725;DHT22;18306;40.960;14.836;2022-11-20T17:02:04;16.30;99.90
31725;DHT22;18306;40.960;14.836;2022-11-20T17:04:33;16.30;99.90
31725;DHT22;18306;40.960;14.836;2022-11-20T17:07:05;16.30;99.90
31725;DHT22;18306;40.960;14.836;2022-11-20T17:09:48;16.30;99.90
31725;DHT22;18306;40.960;14.836;2022-11-20T17:12:20;16.20;99.90
31725;DHT22;18306;40.960;14.836;2022-11-20T17:14:53;16.10;99.90
31725;DHT22;18306;40.960;14.836;2022-11-20T17:17:22;16.10;99.90
31725;DHT22;18306;40.960;14.836;2022-11-20T17:19:50;16.10;99.90
31725;DHT22;18306;40.960;14.836;2022-11-20T17:22:18;16.10;99.90